Terminal Aerodrome Forecast
Issued by NWS

Home | Current Version | Previous Version | Graphics & Text | Print | Product List | Glossary On
Versions: 1 2 3 4 5 6 7 8 9 10 11 12 13 14
000
FTUS43 KICT 230231 AAB
TAFSLN
TAF AMD
KSLN 230231Z 2303/2324 05010KT P6SM -TSRA SCT070CB
     FM230315 03010KT P6SM VCTS SCT070CB
     FM230600 05010KT P6SM SCT250=

USA.gov is the U.S. government's official web portal to all federal, state and local government web resources and services.